sensor_id;sensor_type;location;lat;lon;timestamp;temperature;humidity
546;DHT22;259;53.304;9.816;2022-09-13T00:00:07;19.30;98.80
546;DHT22;259;53.304;9.816;2022-09-13T00:02:33;19.30;98.80
546;DHT22;259;53.304;9.816;2022-09-13T00:04:58;19.30;98.80
546;DHT22;259;53.304;9.816;2022-09-13T00:07:24;19.20;98.80
546;DHT22;259;53.304;9.816;2022-09-13T00:09:49;19.30;98.80
546;DHT22;259;53.304;9.816;2022-09-13T00:12:15;19.50;98.90
546;DHT22;259;53.304;9.816;2022-09-13T00:14:41;19.10;98.70
546;DHT22;259;53.304;9.816;2022-09-13T00:17:06;19.30;98.80
546;DHT22;259;53.304;9.816;2022-09-13T00:19:32;19.20;98.70
546;DHT22;259;53.304;9.816;2022-09-13T00:21:58;19.20;98.80
546;DHT22;259;53.304;9.816;2022-09-13T00:24:23;19.20;98.80
546;DHT22;259;53.304;9.816;2022-09-13T00:26:49;19.20;98.80
546;DHT22;259;53.304;9.816;2022-09-13T00:29:14;19.20;98.80
546;DHT22;259;53.304;9.816;2022-09-13T00:31:40;19.20;98.80
546;DHT22;259;53.304;9.816;2022-09-13T00:34:06;19.40;98.80
546;DHT22;259;53.304;9.816;2022-09-13T00:36:32;19.20;98.80
546;DHT22;259;53.304;9.816;2022-09-13T00:38:59;19.20;98.70
546;DHT22;259;53.304;9.816;2022-09-13T00:41:25;19.20;98.70
546;DHT22;259;53.304;9.816;2022-09-13T00:43:56;19.20;98.80
546;DHT22;259;53.304;9.816;2022-09-13T00:49:45;19.10;98.60
546;DHT22;259;53.304;9.816;2022-09-13T00:51:49;19.10;98.70
546;DHT22;259;53.304;9.816;2022-09-13T00:54:18;19.10;98.70
546;DHT22;259;53.304;9.816;2022-09-13T00:56:57;19.00;98.60
546;DHT22;259;53.304;9.816;2022-09-13T00:59:27;19.10;98.50
546;DHT22;259;53.304;9.816;2022-09-13T01:01:55;19.10;98.40
546;DHT22;259;53.304;9.816;2022-09-13T01:04:24;19.10;98.40
546;DHT22;259;53.304;9.816;2022-09-13T01:06:53;19.10;98.40
546;DHT22;259;53.304;9.816;2022-09-13T01:09:20;19.10;98.40
546;DHT22;259;53.304;9.816;2022-09-13T01:11:52;19.10;98.40
546;DHT22;259;53.304;9.816;2022-09-13T01:14:30;19.10;98.60
546;DHT22;259;53.304;9.816;2022-09-13T01:16:56;19.10;98.60
546;DHT22;259;53.304;9.816;2022-09-13T01:19:22;19.10;98.60
546;DHT22;259;53.304;9.816;2022-09-13T01:30:54;19.10;98.50
546;DHT22;259;53.304;9.816;2022-09-13T01:33:56;19.10;98.70
546;DHT22;259;53.304;9.816;2022-09-13T01:36:47;19.10;98.60
546;DHT22;259;53.304;9.816;2022-09-13T01:39:51;19.00;98.50
546;DHT22;259;53.304;9.816;2022-09-13T01:42:36;19.00;98.50
546;DHT22;259;53.304;9.816;2022-09-13T01:45:08;19.10;98.60
546;DHT22;259;53.304;9.816;2022-09-13T01:47:48;19.00;98.60
546;DHT22;259;53.304;9.816;2022-09-13T01:50:30;19.00;98.60
546;DHT22;259;53.304;9.816;2022-09-13T01:53:06;19.00;98.70
546;DHT22;259;53.304;9.816;2022-09-13T01:58:47;19.00;98.60
546;DHT22;259;53.304;9.816;2022-09-13T02:01:43;19.00;98.70
546;DHT22;259;53.304;9.816;2022-09-13T02:04:17;19.00;98.70
546;DHT22;259;53.304;9.816;2022-09-13T02:09:34;19.00;98.80
546;DHT22;259;53.304;9.816;2022-09-13T02:12:14;19.00;98.80
546;DHT22;259;53.304;9.816;2022-09-13T02:14:43;19.00;98.80
546;DHT22;259;53.304;9.816;2022-09-13T02:17:13;18.90;98.80
546;DHT22;259;53.304;9.816;2022-09-13T02:22:55;18.90;98.70
546;DHT22;259;53.304;9.816;2022-09-13T02:25:21;18.90;98.80
546;DHT22;259;53.304;9.816;2022-09-13T02:27:53;18.90;98.70
546;DHT22;259;53.304;9.816;2022-09-13T02:30:27;19.10;98.80
546;DHT22;259;53.304;9.816;2022-09-13T02:33:03;19.00;98.60
546;DHT22;259;53.304;9.816;2022-09-13T02:35:34;18.90;98.60
546;DHT22;259;53.304;9.816;2022-09-13T02:38:15;18.90;98.60
546;DHT22;259;53.304;9.816;2022-09-13T02:40:47;18.90;98.60
546;DHT22;259;53.304;9.816;2022-09-13T02:43:21;18.90;98.60
546;DHT22;259;53.304;9.816;2022-09-13T02:48:57;18.90;98.80
546;DHT22;259;53.304;9.816;2022-09-13T02:56:51;18.80;98.70
546;DHT22;259;53.304;9.816;2022-09-13T02:59:20;18.80;98.80
546;DHT22;259;53.304;9.816;2022-09-13T03:02:00;18.80;98.70
546;DHT22;259;53.304;9.816;2022-09-13T03:04:28;18.80;98.70
546;DHT22;259;53.304;9.816;2022-09-13T03:06:54;18.80;98.70
546;DHT22;259;53.304;9.816;2022-09-13T03:09:20;18.80;98.60
546;DHT22;259;53.304;9.816;2022-09-13T03:14:51;18.80;98.60
546;DHT22;259;53.304;9.816;2022-09-13T03:20:03;18.80;98.70
546;DHT22;259;53.304;9.816;2022-09-13T03:22:58;18.80;98.70
546;DHT22;259;53.304;9.816;2022-09-13T03:25:45;18.80;98.70
546;DHT22;259;53.304;9.816;2022-09-13T03:29:29;18.80;98.70
546;DHT22;259;53.304;9.816;2022-09-13T03:31:37;18.80;98.70
546;DHT22;259;53.304;9.816;2022-09-13T03:34:32;18.80;98.70
546;DHT22;259;53.304;9.816;2022-09-13T03:37:22;18.80;98.80
546;DHT22;259;53.304;9.816;2022-09-13T03:39:56;18.70;98.70
546;DHT22;259;53.304;9.816;2022-09-13T03:42:38;18.70;98.80
546;DHT22;259;53.304;9.816;2022-09-13T03:45:07;18.70;98.70
546;DHT22;259;53.304;9.816;2022-09-13T03:47:34;18.70;98.70
546;DHT22;259;53.304;9.816;2022-09-13T03:50:02;18.70;98.80
546;DHT22;259;53.304;9.816;2022-09-13T03:52:28;18.70;98.80
546;DHT22;259;53.304;9.816;2022-09-13T03:54:53;18.70;98.80
546;DHT22;259;53.304;9.816;2022-09-13T03:57:20;18.60;98.80
546;DHT22;259;53.304;9.816;2022-09-13T03:59:51;18.70;98.80
546;DHT22;259;53.304;9.816;2022-09-13T04:02:18;18.70;98.80
546;DHT22;259;53.304;9.816;2022-09-13T04:04:45;18.70;98.80
546;DHT22;259;53.304;9.816;2022-09-13T04:07:13;18.60;98.80
546;DHT22;259;53.304;9.816;2022-09-13T04:09:39;18.70;98.80
546;DHT22;259;53.304;9.816;2022-09-13T04:12:05;18.90;98.90
546;DHT22;259;53.304;9.816;2022-09-13T04:14:31;18.70;98.80
546;DHT22;259;53.304;9.816;2022-09-13T04:16:57;18.70;98.80
546;DHT22;259;53.304;9.816;2022-09-13T04:19:24;18.70;98.80
546;DHT22;259;53.304;9.816;2022-09-13T04:21:51;18.70;99.20
546;DHT22;259;53.304;9.816;2022-09-13T04:24:17;18.60;98.90
546;DHT22;259;53.304;9.816;2022-09-13T04:26:47;18.70;99.00
546;DHT22;259;53.304;9.816;2022-09-13T04:29:13;18.60;99.00
546;DHT22;259;53.304;9.816;2022-09-13T04:31:39;18.60;98.90
546;DHT22;259;53.304;9.816;2022-09-13T04:34:04;18.60;98.80
546;DHT22;259;53.304;9.816;2022-09-13T04:36:31;18.60;98.90
546;DHT22;259;53.304;9.816;2022-09-13T04:38:58;18.60;98.90
546;DHT22;259;53.304;9.816;2022-09-13T04:41:25;18.70;99.00
546;DHT22;259;53.304;9.816;2022-09-13T04:43:50;18.60;98.90
546;DHT22;259;53.304;9.816;2022-09-13T04:46:16;18.60;99.00
546;DHT22;259;53.304;9.816;2022-09-13T04:48:44;18.60;98.90
546;DHT22;259;53.304;9.816;2022-09-13T04:51:12;18.60;98.90
546;DHT22;259;53.304;9.816;2022-09-13T04:53:39;18.60;99.00
546;DHT22;259;53.304;9.816;2022-09-13T04:56:05;18.60;98.90
546;DHT22;259;53.304;9.816;2022-09-13T04:58:31;18.60;99.00
546;DHT22;259;53.304;9.816;2022-09-13T05:01:02;18.60;99.00
546;DHT22;259;53.304;9.816;2022-09-13T05:03:32;18.60;99.00
546;DHT22;259;53.304;9.816;2022-09-13T05:06:05;18.60;99.00
546;DHT22;259;53.304;9.816;2022-09-13T05:08:31;18.60;99.00
546;DHT22;259;53.304;9.816;2022-09-13T05:10:57;18.60;99.00
546;DHT22;259;53.304;9.816;2022-09-13T05:13:24;18.60;99.00
546;DHT22;259;53.304;9.816;2022-09-13T05:15:53;18.50;99.00
546;DHT22;259;53.304;9.816;2022-09-13T05:18:19;18.50;99.00
546;DHT22;259;53.304;9.816;2022-09-13T05:20:44;18.50;99.00
546;DHT22;259;53.304;9.816;2022-09-13T05:23:10;18.80;99.10
546;DHT22;259;53.304;9.816;2022-09-13T05:25:35;18.50;99.00
546;DHT22;259;53.304;9.816;2022-09-13T05:28:01;18.50;99.00
546;DHT22;259;53.304;9.816;2022-09-13T05:30:27;18.50;99.00
546;DHT22;259;53.304;9.816;2022-09-13T05:32:52;18.50;99.10
546;DHT22;259;53.304;9.816;2022-09-13T05:35:18;18.50;99.00
546;DHT22;259;53.304;9.816;2022-09-13T05:37:43;18.60;99.10
546;DHT22;259;53.304;9.816;2022-09-13T05:40:09;18.60;99.20
546;DHT22;259;53.304;9.816;2022-09-13T05:42:35;18.50;99.10
546;DHT22;259;53.304;9.816;2022-09-13T05:45:02;18.50;99.30
546;DHT22;259;53.304;9.816;2022-09-13T05:47:28;18.50;99.70
546;DHT22;259;53.304;9.816;2022-09-13T05:49:54;18.60;99.90
546;DHT22;259;53.304;9.816;2022-09-13T05:52:19;18.60;99.90
546;DHT22;259;53.304;9.816;2022-09-13T05:54:45;18.80;99.90
546;DHT22;259;53.304;9.816;2022-09-13T05:57:11;18.60;99.90
546;DHT22;259;53.304;9.816;2022-09-13T05:59:36;18.80;99.90
546;DHT22;259;53.304;9.816;2022-09-13T06:02:02;18.80;99.90
546;DHT22;259;53.304;9.816;2022-09-13T06:04:28;18.70;99.90
546;DHT22;259;53.304;9.816;2022-09-13T06:06:53;18.80;99.90
546;DHT22;259;53.304;9.816;2022-09-13T06:09:19;18.80;99.90
546;DHT22;259;53.304;9.816;2022-09-13T06:11:47;18.70;99.90
546;DHT22;259;53.304;9.816;2022-09-13T06:14:13;18.90;99.90
546;DHT22;259;53.304;9.816;2022-09-13T06:16:38;18.90;99.90
546;DHT22;259;53.304;9.816;2022-09-13T06:19:04;18.90;99.90
546;DHT22;259;53.304;9.816;2022-09-13T06:21:29;18.90;99.90
546;DHT22;259;53.304;9.816;2022-09-13T06:23:55;18.90;99.90
546;DHT22;259;53.304;9.816;2022-09-13T06:26:23;18.80;99.90
546;DHT22;259;53.304;9.816;2022-09-13T06:28:51;18.90;99.90
546;DHT22;259;53.304;9.816;2022-09-13T06:31:20;18.90;99.90
546;DHT22;259;53.304;9.816;2022-09-13T06:33:46;18.90;99.90
546;DHT22;259;53.304;9.816;2022-09-13T06:36:16;19.00;99.90
546;DHT22;259;53.304;9.816;2022-09-13T06:38:42;19.00;99.90
546;DHT22;259;53.304;9.816;2022-09-13T06:41:11;19.00;99.90
546;DHT22;259;53.304;9.816;2022-09-13T06:43:38;19.00;99.90
546;DHT22;259;53.304;9.816;2022-09-13T06:46:07;19.00;99.90
546;DHT22;259;53.304;9.816;2022-09-13T06:48:35;19.00;99.90
546;DHT22;259;53.304;9.816;2022-09-13T06:51:07;19.00;99.90
546;DHT22;259;53.304;9.816;2022-09-13T06:53:34;18.90;99.90
546;DHT22;259;53.304;9.816;2022-09-13T06:56:17;19.00;99.90
546;DHT22;259;53.304;9.816;2022-09-13T06:58:46;19.00;99.90
546;DHT22;259;53.304;9.816;2022-09-13T07:01:22;19.00;99.90
546;DHT22;259;53.304;9.816;2022-09-13T07:03:50;19.10;99.90
546;DHT22;259;53.304;9.816;2022-09-13T07:06:22;19.10;99.90
546;DHT22;259;53.304;9.816;2022-09-13T07:08:58;19.10;99.90
546;DHT22;259;53.304;9.816;2022-09-13T07:11:27;19.10;99.90
546;DHT22;259;53.304;9.816;2022-09-13T07:13:55;19.10;99.90
546;DHT22;259;53.304;9.816;2022-09-13T07:16:23;19.10;99.90
546;DHT22;259;53.304;9.816;2022-09-13T07:18:54;19.10;99.90
546;DHT22;259;53.304;9.816;2022-09-13T07:21:20;19.20;99.90
546;DHT22;259;53.304;9.816;2022-09-13T07:23:47;19.20;99.90
546;DHT22;259;53.304;9.816;2022-09-13T07:26:13;19.20;99.90
546;DHT22;259;53.304;9.816;2022-09-13T07:28:44;19.20;99.90
546;DHT22;259;53.304;9.816;2022-09-13T07:31:21;19.40;99.90
546;DHT22;259;53.304;9.816;2022-09-13T07:33:55;19.30;99.90
546;DHT22;259;53.304;9.816;2022-09-13T07:36:21;19.40;99.90
546;DHT22;259;53.304;9.816;2022-09-13T07:38:47;19.40;99.90
546;DHT22;259;53.304;9.816;2022-09-13T07:41:17;19.50;99.90
546;DHT22;259;53.304;9.816;2022-09-13T07:43:43;19.50;99.90
546;DHT22;259;53.304;9.816;2022-09-13T07:46:14;19.50;99.90
546;DHT22;259;53.304;9.816;2022-09-13T07:48:41;19.50;99.90
546;DHT22;259;53.304;9.816;2022-09-13T07:51:13;19.50;99.90
546;DHT22;259;53.304;9.816;2022-09-13T07:53:40;19.50;99.90
546;DHT22;259;53.304;9.816;2022-09-13T07:56:11;19.50;99.90
546;DHT22;259;53.304;9.816;2022-09-13T07:58:38;19.50;99.90
546;DHT22;259;53.304;9.816;2022-09-13T08:01:18;19.50;99.90
546;DHT22;259;53.304;9.816;2022-09-13T08:03:55;19.50;99.90
546;DHT22;259;53.304;9.816;2022-09-13T08:06:22;19.60;99.90
546;DHT22;259;53.304;9.816;2022-09-13T08:08:48;19.60;99.90
546;DHT22;259;53.304;9.816;2022-09-13T08:11:19;19.60;99.90
546;DHT22;259;53.304;9.816;2022-09-13T08:13:46;19.60;99.90
546;DHT22;259;53.304;9.816;2022-09-13T08:16:12;19.60;99.90
546;DHT22;259;53.304;9.816;2022-09-13T08:18:46;19.70;99.90
546;DHT22;259;53.304;9.816;2022-09-13T08:21:12;19.70;99.90
546;DHT22;259;53.304;9.816;2022-09-13T08:23:42;19.70;99.90
546;DHT22;259;53.304;9.816;2022-09-13T08:26:08;19.70;99.90
546;DHT22;259;53.304;9.816;2022-09-13T08:28:36;19.80;99.90
546;DHT22;259;53.304;9.816;2022-09-13T08:31:13;19.80;99.90
546;DHT22;259;53.304;9.816;2022-09-13T08:33:43;19.80;99.90
546;DHT22;259;53.304;9.816;2022-09-13T08:36:09;19.80;99.90
546;DHT22;259;53.304;9.816;2022-09-13T08:38:35;19.80;99.90
546;DHT22;259;53.304;9.816;2022-09-13T08:41:38;19.80;99.90
546;DHT22;259;53.304;9.816;2022-09-13T08:44:28;19.70;99.90
546;DHT22;259;53.304;9.816;2022-09-13T08:50:05;19.70;99.90
546;DHT22;259;53.304;9.816;2022-09-13T08:52:37;19.70;99.90
546;DHT22;259;53.304;9.816;2022-09-13T09:00:40;19.80;99.90
546;DHT22;259;53.304;9.816;2022-09-13T09:05:48;19.80;99.90
546;DHT22;259;53.304;9.816;2022-09-13T09:08:31;19.80;99.90
546;DHT22;259;53.304;9.816;2022-09-13T09:11:43;19.80;99.90
546;DHT22;259;53.304;9.816;2022-09-13T09:14:23;19.80;99.90
546;DHT22;259;53.304;9.816;2022-09-13T09:17:10;19.60;99.90
546;DHT22;259;53.304;9.816;2022-09-13T09:20:23;19.90;99.90
546;DHT22;259;53.304;9.816;2022-09-13T09:22:51;19.90;99.90
546;DHT22;259;53.304;9.816;2022-09-13T09:25:18;19.90;99.90
546;DHT22;259;53.304;9.816;2022-09-13T09:27:44;19.90;99.90
546;DHT22;259;53.304;9.816;2022-09-13T09:30:13;19.90;99.90
546;DHT22;259;53.304;9.816;2022-09-13T09:36:03;19.90;99.90
546;DHT22;259;53.304;9.816;2022-09-13T09:40:47;19.80;99.90
546;DHT22;259;53.304;9.816;2022-09-13T09:43:31;19.80;99.90
546;DHT22;259;53.304;9.816;2022-09-13T09:46:00;19.80;99.90
546;DHT22;259;53.304;9.816;2022-09-13T09:48:31;19.70;99.90
546;DHT22;259;53.304;9.816;2022-09-13T09:50:57;19.70;99.90
546;DHT22;259;53.304;9.816;2022-09-13T09:53:31;19.70;99.90
546;DHT22;259;53.304;9.816;2022-09-13T09:56:01;19.70;99.90
546;DHT22;259;53.304;9.816;2022-09-13T09:58:40;19.70;99.90
546;DHT22;259;53.304;9.816;2022-09-13T10:03:50;19.70;99.90
546;DHT22;259;53.304;9.816;2022-09-13T10:06:22;19.70;99.90
546;DHT22;259;53.304;9.816;2022-09-13T10:09:02;19.70;99.90
546;DHT22;259;53.304;9.816;2022-09-13T10:11:40;19.70;99.90
546;DHT22;259;53.304;9.816;2022-09-13T10:17:25;19.80;99.90
546;DHT22;259;53.304;9.816;2022-09-13T10:19:55;19.80;99.90
546;DHT22;259;53.304;9.816;2022-09-13T10:22:24;19.80;99.90
546;DHT22;259;53.304;9.816;2022-09-13T10:24:50;19.80;99.90
546;DHT22;259;53.304;9.816;2022-09-13T10:29:49;19.80;99.90
546;DHT22;259;53.304;9.816;2022-09-13T10:32:16;19.80;99.90
546;DHT22;259;53.304;9.816;2022-09-13T10:34:45;19.80;99.90
546;DHT22;259;53.304;9.816;2022-09-13T10:40:07;19.80;99.90
546;DHT22;259;53.304;9.816;2022-09-13T10:42:37;19.80;99.90
546;DHT22;259;53.304;9.816;2022-09-13T10:45:06;19.80;99.90
546;DHT22;259;53.304;9.816;2022-09-13T10:47:44;19.80;99.90
546;DHT22;259;53.304;9.816;2022-09-13T10:52:51;19.70;99.90
546;DHT22;259;53.304;9.816;2022-09-13T10:57:49;19.70;99.90
546;DHT22;259;53.304;9.816;2022-09-13T11:25:31;19.60;99.90
546;DHT22;259;53.304;9.816;2022-09-13T11:30:46;19.60;99.90
546;DHT22;259;53.304;9.816;2022-09-13T11:39:36;19.60;99.90
546;DHT22;259;53.304;9.816;2022-09-13T11:45:18;19.60;99.90
546;DHT22;259;53.304;9.816;2022-09-13T11:53:13;19.60;99.90
546;DHT22;259;53.304;9.816;2022-09-13T11:55:56;19.60;99.90
546;DHT22;259;53.304;9.816;2022-09-13T11:58:38;19.60;99.90
546;DHT22;259;53.304;9.816;2022-09-13T12:01:09;19.60;99.90
546;DHT22;259;53.304;9.816;2022-09-13T12:03:42;19.60;99.90
546;DHT22;259;53.304;9.816;2022-09-13T12:08:41;19.60;99.90
546;DHT22;259;53.304;9.816;2022-09-13T12:11:31;19.60;99.90
546;DHT22;259;53.304;9.816;2022-09-13T12:14:01;19.60;99.90
546;DHT22;259;53.304;9.816;2022-09-13T12:16:31;19.60;99.90
546;DHT22;259;53.304;9.816;2022-09-13T12:19:15;19.70;99.90
546;DHT22;259;53.304;9.816;2022-09-13T12:21:43;19.70;99.90
546;DHT22;259;53.304;9.816;2022-09-13T12:26:56;19.90;99.90
546;DHT22;259;53.304;9.816;2022-09-13T12:29:43;19.90;99.90
546;DHT22;259;53.304;9.816;2022-09-13T12:32:17;20.00;99.90
546;DHT22;259;53.304;9.816;2022-09-13T12:37:48;19.90;99.90
546;DHT22;259;53.304;9.816;2022-09-13T12:46:50;19.90;99.40
546;DHT22;259;53.304;9.816;2022-09-13T12:49:35;19.90;99.00
546;DHT22;259;53.304;9.816;2022-09-13T12:52:25;19.90;99.30
546;DHT22;259;53.304;9.816;2022-09-13T13:01:13;20.00;98.90
546;DHT22;259;53.304;9.816;2022-09-13T13:03:50;20.00;98.80
546;DHT22;259;53.304;9.816;2022-09-13T13:06:37;20.00;98.60
546;DHT22;259;53.304;9.816;2022-09-13T13:09:19;20.00;98.40
546;DHT22;259;53.304;9.816;2022-09-13T13:11:48;20.00;98.30
546;DHT22;259;53.304;9.816;2022-09-13T13:26:08;20.00;98.30
546;DHT22;259;53.304;9.816;2022-09-13T13:39:08;20.10;98.80
546;DHT22;259;53.304;9.816;2022-09-13T13:41:40;20.20;98.80
546;DHT22;259;53.304;9.816;2022-09-13T13:46:48;20.30;98.50
546;DHT22;259;53.304;9.816;2022-09-13T13:52:38;20.50;98.30
546;DHT22;259;53.304;9.816;2022-09-13T13:58:29;20.50;98.30
546;DHT22;259;53.304;9.816;2022-09-13T14:00:55;20.50;98.20
546;DHT22;259;53.304;9.816;2022-09-13T14:06:40;20.60;98.30
546;DHT22;259;53.304;9.816;2022-09-13T14:09:19;20.60;98.40
546;DHT22;259;53.304;9.816;2022-09-13T14:19:49;20.70;98.10
546;DHT22;259;53.304;9.816;2022-09-13T14:22:25;20.70;97.90
546;DHT22;259;53.304;9.816;2022-09-13T14:25:12;20.70;98.10
546;DHT22;259;53.304;9.816;2022-09-13T14:27:39;20.70;98.00
546;DHT22;259;53.304;9.816;2022-09-13T14:32:44;20.70;98.10
546;DHT22;259;53.304;9.816;2022-09-13T14:35:29;20.70;98.10
546;DHT22;259;53.304;9.816;2022-09-13T14:38:09;20.80;98.10
546;DHT22;259;53.304;9.816;2022-09-13T14:40:34;20.80;97.90
546;DHT22;259;53.304;9.816;2022-09-13T14:43:13;20.80;97.80
546;DHT22;259;53.304;9.816;2022-09-13T14:45:40;20.90;97.60
546;DHT22;259;53.304;9.816;2022-09-13T14:50:55;20.90;96.80
546;DHT22;259;53.304;9.816;2022-09-13T14:53:24;20.90;96.40
546;DHT22;259;53.304;9.816;2022-09-13T14:55:55;20.90;96.20
546;DHT22;259;53.304;9.816;2022-09-13T14:58:27;20.90;95.90
546;DHT22;259;53.304;9.816;2022-09-13T15:01:01;20.90;96.10
546;DHT22;259;53.304;9.816;2022-09-13T15:03:27;20.90;96.10
546;DHT22;259;53.304;9.816;2022-09-13T15:05:57;20.90;96.00
546;DHT22;259;53.304;9.816;2022-09-13T15:08:42;20.90;95.90
546;DHT22;259;53.304;9.816;2022-09-13T15:11:26;20.90;95.80
546;DHT22;259;53.304;9.816;2022-09-13T15:16:47;20.90;95.30
546;DHT22;259;53.304;9.816;2022-09-13T15:19:35;20.90;95.00
546;DHT22;259;53.304;9.816;2022-09-13T15:22:13;20.90;94.90
546;DHT22;259;53.304;9.816;2022-09-13T15:24:45;20.90;94.60
546;DHT22;259;53.304;9.816;2022-09-13T15:27:42;20.80;94.40
546;DHT22;259;53.304;9.816;2022-09-13T15:30:36;20.80;94.20
546;DHT22;259;53.304;9.816;2022-09-13T15:33:16;20.80;94.10
546;DHT22;259;53.304;9.816;2022-09-13T15:35:44;20.70;94.00
546;DHT22;259;53.304;9.816;2022-09-13T15:41:10;20.70;94.20
546;DHT22;259;53.304;9.816;2022-09-13T15:43:36;20.70;94.30
546;DHT22;259;53.304;9.816;2022-09-13T15:46:02;20.60;94.40
546;DHT22;259;53.304;9.816;2022-09-13T15:48:30;20.60;94.50
546;DHT22;259;53.304;9.816;2022-09-13T15:51:09;20.60;94.70
546;DHT22;259;53.304;9.816;2022-09-13T15:53:36;20.60;94.90
546;DHT22;259;53.304;9.816;2022-09-13T15:56:03;20.60;95.00
546;DHT22;259;53.304;9.816;2022-09-13T15:58:29;20.50;95.00
546;DHT22;259;53.304;9.816;2022-09-13T16:00:55;20.50;95.00
546;DHT22;259;53.304;9.816;2022-09-13T16:03:21;20.50;94.80
546;DHT22;259;53.304;9.816;2022-09-13T16:05:46;20.50;94.80
546;DHT22;259;53.304;9.816;2022-09-13T16:08:12;20.50;94.90
546;DHT22;259;53.304;9.816;2022-09-13T16:10:39;20.50;94.90
546;DHT22;259;53.304;9.816;2022-09-13T16:13:04;20.40;95.00
546;DHT22;259;53.304;9.816;2022-09-13T16:15:30;20.40;95.30
546;DHT22;259;53.304;9.816;2022-09-13T16:17:56;20.50;95.70
546;DHT22;259;53.304;9.816;2022-09-13T16:20:21;20.50;95.50
546;DHT22;259;53.304;9.816;2022-09-13T16:22:48;20.50;95.40
546;DHT22;259;53.304;9.816;2022-09-13T16:25:14;20.50;95.30
546;DHT22;259;53.304;9.816;2022-09-13T16:27:41;20.40;95.10
546;DHT22;259;53.304;9.816;2022-09-13T16:30:12;20.40;95.10
546;DHT22;259;53.304;9.816;2022-09-13T16:32:37;20.40;95.20
546;DHT22;259;53.304;9.816;2022-09-13T16:35:03;20.40;95.20
546;DHT22;259;53.304;9.816;2022-09-13T16:37:29;20.40;95.30
546;DHT22;259;53.304;9.816;2022-09-13T16:39:56;20.40;95.40
546;DHT22;259;53.304;9.816;2022-09-13T16:42:22;20.40;95.50
546;DHT22;259;53.304;9.816;2022-09-13T16:44:48;20.40;95.60
546;DHT22;259;53.304;9.816;2022-09-13T16:47:13;20.40;95.60
546;DHT22;259;53.304;9.816;2022-09-13T16:49:39;20.40;95.70
546;DHT22;259;53.304;9.816;2022-09-13T16:52:05;20.40;95.80
546;DHT22;259;53.304;9.816;2022-09-13T16:54:30;20.40;95.90
546;DHT22;259;53.304;9.816;2022-09-13T16:56:58;20.40;96.00
546;DHT22;259;53.304;9.816;2022-09-13T16:59:24;20.40;95.90
546;DHT22;259;53.304;9.816;2022-09-13T17:01:50;20.40;95.90
546;DHT22;259;53.304;9.816;2022-09-13T17:04:15;20.30;95.90
546;DHT22;259;53.304;9.816;2022-09-13T17:06:42;20.30;96.00
546;DHT22;259;53.304;9.816;2022-09-13T17:09:08;20.30;96.00
546;DHT22;259;53.304;9.816;2022-09-13T17:11:37;20.30;96.00
546;DHT22;259;53.304;9.816;2022-09-13T17:14:05;20.30;96.10
546;DHT22;259;53.304;9.816;2022-09-13T17:16:34;20.30;96.10
546;DHT22;259;53.304;9.816;2022-09-13T17:19:03;20.30;96.20
546;DHT22;259;53.304;9.816;2022-09-13T17:21:30;20.30;96.20
546;DHT22;259;53.304;9.816;2022-09-13T17:23:58;20.30;96.30
546;DHT22;259;53.304;9.816;2022-09-13T17:26:24;20.30;96.30
546;DHT22;259;53.304;9.816;2022-09-13T17:28:49;20.30;96.70
546;DHT22;259;53.304;9.816;2022-09-13T17:31:17;20.30;96.40
546;DHT22;259;53.304;9.816;2022-09-13T17:33:43;20.20;96.40
546;DHT22;259;53.304;9.816;2022-09-13T17:36:11;20.20;96.40
546;DHT22;259;53.304;9.816;2022-09-13T17:38:38;20.30;96.50
546;DHT22;259;53.304;9.816;2022-09-13T17:41:07;20.20;96.50
546;DHT22;259;53.304;9.816;2022-09-13T17:43:34;20.20;96.50
546;DHT22;259;53.304;9.816;2022-09-13T17:46:10;20.20;96.60
546;DHT22;259;53.304;9.816;2022-09-13T17:48:36;20.20;96.60
546;DHT22;259;53.304;9.816;2022-09-13T17:51:09;20.20;96.60
546;DHT22;259;53.304;9.816;2022-09-13T17:53:37;20.20;96.70
546;DHT22;259;53.304;9.816;2022-09-13T17:56:04;20.20;96.80
546;DHT22;259;53.304;9.816;2022-09-13T17:58:29;20.20;96.80
546;DHT22;259;53.304;9.816;2022-09-13T18:01:00;20.20;96.80
546;DHT22;259;53.304;9.816;2022-09-13T18:03:26;20.10;96.80
546;DHT22;259;53.304;9.816;2022-09-13T18:05:56;20.10;96.80
546;DHT22;259;53.304;9.816;2022-09-13T18:08:23;20.20;96.80
546;DHT22;259;53.304;9.816;2022-09-13T18:10:49;20.20;96.80
546;DHT22;259;53.304;9.816;2022-09-13T18:13:14;20.20;96.80
546;DHT22;259;53.304;9.816;2022-09-13T18:15:40;20.10;96.80
546;DHT22;259;53.304;9.816;2022-09-13T18:18:06;20.10;96.80
546;DHT22;259;53.304;9.816;2022-09-13T18:20:31;20.10;96.90
546;DHT22;259;53.304;9.816;2022-09-13T18:22:57;20.10;96.80
546;DHT22;259;53.304;9.816;2022-09-13T18:25:22;20.10;96.90
546;DHT22;259;53.304;9.816;2022-09-13T18:27:48;20.10;96.90
546;DHT22;259;53.304;9.816;2022-09-13T18:30:15;20.10;96.90
546;DHT22;259;53.304;9.816;2022-09-13T18:32:40;20.10;97.30
546;DHT22;259;53.304;9.816;2022-09-13T18:35:06;20.10;97.00
546;DHT22;259;53.304;9.816;2022-09-13T18:37:32;20.10;96.90
546;DHT22;259;53.304;9.816;2022-09-13T18:39:59;20.10;96.90
546;DHT22;259;53.304;9.816;2022-09-13T18:42:24;20.10;96.90
546;DHT22;259;53.304;9.816;2022-09-13T18:44:50;20.10;96.90
546;DHT22;259;53.304;9.816;2022-09-13T18:47:16;20.10;96.90
546;DHT22;259;53.304;9.816;2022-09-13T18:49:42;20.10;96.90
546;DHT22;259;53.304;9.816;2022-09-13T18:52:08;20.10;96.90
546;DHT22;259;53.304;9.816;2022-09-13T18:54:35;20.00;96.90
546;DHT22;259;53.304;9.816;2022-09-13T18:57:01;20.00;96.90
546;DHT22;259;53.304;9.816;2022-09-13T18:59:27;20.00;97.00
546;DHT22;259;53.304;9.816;2022-09-13T19:01:54;20.00;96.90
546;DHT22;259;53.304;9.816;2022-09-13T19:04:20;20.00;97.00
546;DHT22;259;53.304;9.816;2022-09-13T19:06:49;20.00;97.00
546;DHT22;259;53.304;9.816;2022-09-13T19:09:16;20.00;97.30
546;DHT22;259;53.304;9.816;2022-09-13T19:11:44;20.00;97.20
546;DHT22;259;53.304;9.816;2022-09-13T19:14:13;20.00;97.10
546;DHT22;259;53.304;9.816;2022-09-13T19:16:39;20.00;97.10
546;DHT22;259;53.304;9.816;2022-09-13T19:19:04;19.90;97.00
546;DHT22;259;53.304;9.816;2022-09-13T19:21:31;19.90;97.00
546;DHT22;259;53.304;9.816;2022-09-13T19:23:58;19.90;97.00
546;DHT22;259;53.304;9.816;2022-09-13T19:26:29;19.90;97.00
546;DHT22;259;53.304;9.816;2022-09-13T19:29:00;19.90;97.00
546;DHT22;259;53.304;9.816;2022-09-13T19:31:32;19.90;97.00
546;DHT22;259;53.304;9.816;2022-09-13T19:33:59;19.90;97.00
546;DHT22;259;53.304;9.816;2022-09-13T19:36:27;19.90;97.00
546;DHT22;259;53.304;9.816;2022-09-13T19:38:54;19.80;97.00
546;DHT22;259;53.304;9.816;2022-09-13T19:41:22;19.90;97.00
546;DHT22;259;53.304;9.816;2022-09-13T19:43:48;19.90;97.20
546;DHT22;259;53.304;9.816;2022-09-13T19:46:17;19.80;97.00
546;DHT22;259;53.304;9.816;2022-09-13T19:48:48;19.80;96.80
546;DHT22;259;53.304;9.816;2022-09-13T19:51:16;19.80;96.70
546;DHT22;259;53.304;9.816;2022-09-13T19:53:43;19.80;96.70
546;DHT22;259;53.304;9.816;2022-09-13T19:56:12;19.80;96.90
546;DHT22;259;53.304;9.816;2022-09-13T19:58:42;19.80;96.90
546;DHT22;259;53.304;9.816;2022-09-13T20:01:13;19.80;96.90